sensor_id;sensor_type;location;lat;lon;timestamp;pressure;altitude;pressure_sealevel;temperature;humidity
34674;BME280;20879;55.668;37.858;2022-07-06T00:00:48;99732.47;;;18.95;90.29
34674;BME280;20879;55.668;37.858;2022-07-06T00:03:17;99725.50;;;18.94;90.14
34674;BME280;20879;55.668;37.858;2022-07-06T00:05:46;99718.03;;;18.86;90.49
34674;BME280;20879;55.668;37.858;2022-07-06T00:08:15;99723.44;;;18.81;90.46
34674;BME280;20879;55.668;37.858;2022-07-06T00:10:48;99724.88;;;18.69;90.75
34674;BME280;20879;55.668;37.858;2022-07-06T00:13:17;99725.69;;;18.72;91.28
34674;BME280;20879;55.668;37.858;2022-07-06T00:15:47;99726.28;;;18.77;91.30
34674;BME280;20879;55.668;37.858;2022-07-06T00:18:16;99722.81;;;18.76;91.46
34674;BME280;20879;55.668;37.858;2022-07-06T00:20:45;99715.19;;;18.72;91.64
34674;BME280;20879;55.668;37.858;2022-07-06T00:23:15;99721.44;;;18.69;91.58
34674;BME280;20879;55.668;37.858;2022-07-06T00:25:44;99723.56;;;18.61;92.31
34674;BME280;20879;55.668;37.858;2022-07-06T00:28:16;99713.16;;;18.59;92.97
34674;BME280;20879;55.668;37.858;2022-07-06T00:30:46;99709.38;;;18.65;93.15
34674;BME280;20879;55.668;37.858;2022-07-06T00:33:15;99707.97;;;18.58;92.34
34674;BME280;20879;55.668;37.858;2022-07-06T00:35:44;99718.31;;;18.61;92.70
34674;BME280;20879;55.668;37.858;2022-07-06T00:38:14;99717.31;;;18.63;92.19
34674;BME280;20879;55.668;37.858;2022-07-06T00:40:44;99706.22;;;18.58;92.22
34674;BME280;20879;55.668;37.858;2022-07-06T00:43:13;99706.31;;;18.57;92.65
34674;BME280;20879;55.668;37.858;2022-07-06T00:45:44;99704.03;;;18.49;92.81
34674;BME280;20879;55.668;37.858;2022-07-06T00:48:14;99713.69;;;18.48;92.83
34674;BME280;20879;55.668;37.858;2022-07-06T00:50:43;99712.91;;;18.46;93.08
34674;BME280;20879;55.668;37.858;2022-07-06T00:53:12;99708.25;;;18.34;93.49
34674;BME280;20879;55.668;37.858;2022-07-06T00:55:42;99718.00;;;18.49;93.54
34674;BME280;20879;55.668;37.858;2022-07-06T00:58:11;99718.03;;;18.67;92.91
34674;BME280;20879;55.668;37.858;2022-07-06T01:00:40;99722.13;;;18.73;91.92
34674;BME280;20879;55.668;37.858;2022-07-06T01:03:13;99730.22;;;18.85;91.66
34674;BME280;20879;55.668;37.858;2022-07-06T01:05:43;99729.47;;;18.83;92.03
34674;BME280;20879;55.668;37.858;2022-07-06T01:08:13;99726.06;;;18.81;92.00
34674;BME280;20879;55.668;37.858;2022-07-06T01:10:43;99732.00;;;18.67;92.29
34674;BME280;20879;55.668;37.858;2022-07-06T01:13:12;99723.97;;;18.71;92.62
34674;BME280;20879;55.668;37.858;2022-07-06T01:15:42;99727.84;;;18.81;93.10
34674;BME280;20879;55.668;37.858;2022-07-06T01:18:14;99689.81;;;18.72;93.11
34674;BME280;20879;55.668;37.858;2022-07-06T01:20:45;99726.34;;;19.29;91.95
34674;BME280;20879;55.668;37.858;2022-07-06T01:23:14;99724.66;;;19.79;90.00
34674;BME280;20879;55.668;37.858;2022-07-06T01:25:43;99712.56;;;20.24;87.69
34674;BME280;20879;55.668;37.858;2022-07-06T01:28:12;99714.09;;;20.60;85.81
34674;BME280;20879;55.668;37.858;2022-07-06T01:30:42;99716.38;;;20.67;84.46
34674;BME280;20879;55.668;37.858;2022-07-06T01:33:12;99712.81;;;20.84;84.08
34674;BME280;20879;55.668;37.858;2022-07-06T01:35:45;99716.91;;;20.88;83.54
34674;BME280;20879;55.668;37.858;2022-07-06T01:38:16;99708.31;;;21.00;83.02
34674;BME280;20879;55.668;37.858;2022-07-06T01:40:46;99719.97;;;21.41;81.35
34674;BME280;20879;55.668;37.858;2022-07-06T01:43:15;99715.13;;;21.78;79.54
34674;BME280;20879;55.668;37.858;2022-07-06T01:45:44;99706.63;;;22.02;78.10
34674;BME280;20879;55.668;37.858;2022-07-06T01:48:14;99709.38;;;21.71;78.68
34674;BME280;20879;55.668;37.858;2022-07-06T01:50:45;99708.94;;;21.20;80.30
34674;BME280;20879;55.668;37.858;2022-07-06T01:53:14;99721.97;;;21.07;81.64
34674;BME280;20879;55.668;37.858;2022-07-06T01:55:44;99726.91;;;20.51;82.82
34674;BME280;20879;55.668;37.858;2022-07-06T01:58:13;99720.81;;;20.18;84.46
34674;BME280;20879;55.668;37.858;2022-07-06T02:00:43;99709.84;;;19.94;85.45
34674;BME280;20879;55.668;37.858;2022-07-06T02:03:13;99727.72;;;19.87;85.66
34674;BME280;20879;55.668;37.858;2022-07-06T02:05:42;99722.41;;;19.71;86.52
34674;BME280;20879;55.668;37.858;2022-07-06T02:08:13;99735.97;;;19.64;87.77
34674;BME280;20879;55.668;37.858;2022-07-06T02:10:42;99736.88;;;19.63;87.62
34674;BME280;20879;55.668;37.858;2022-07-06T02:13:12;99729.91;;;19.62;87.84
34674;BME280;20879;55.668;37.858;2022-07-06T02:15:42;99737.13;;;19.58;87.86
34674;BME280;20879;55.668;37.858;2022-07-06T02:18:11;99730.50;;;19.51;88.15
34674;BME280;20879;55.668;37.858;2022-07-06T02:20:41;99741.06;;;19.49;88.31
34674;BME280;20879;55.668;37.858;2022-07-06T02:23:12;99740.84;;;19.54;88.07
34674;BME280;20879;55.668;37.858;2022-07-06T02:25:42;99733.03;;;19.52;87.87
34674;BME280;20879;55.668;37.858;2022-07-06T02:28:11;99743.91;;;19.62;87.67
34674;BME280;20879;55.668;37.858;2022-07-06T02:30:41;99735.78;;;19.67;87.73
34674;BME280;20879;55.668;37.858;2022-07-06T02:33:11;99750.09;;;19.79;87.69
34674;BME280;20879;55.668;37.858;2022-07-06T02:35:41;99749.94;;;19.98;87.37
34674;BME280;20879;55.668;37.858;2022-07-06T02:38:14;99747.00;;;20.20;86.20
34674;BME280;20879;55.668;37.858;2022-07-06T02:40:43;99747.44;;;20.44;85.50
34674;BME280;20879;55.668;37.858;2022-07-06T02:43:12;99752.09;;;20.55;84.84
34674;BME280;20879;55.668;37.858;2022-07-06T02:45:42;99749.81;;;20.65;84.26
34674;BME280;20879;55.668;37.858;2022-07-06T02:48:12;99747.19;;;20.65;84.14
34674;BME280;20879;55.668;37.858;2022-07-06T02:50:41;99737.94;;;20.57;83.92
34674;BME280;20879;55.668;37.858;2022-07-06T02:53:10;99744.72;;;20.46;83.92
34674;BME280;20879;55.668;37.858;2022-07-06T02:55:41;99738.78;;;20.42;84.57
34674;BME280;20879;55.668;37.858;2022-07-06T02:58:11;99742.75;;;20.33;84.86
34674;BME280;20879;55.668;37.858;2022-07-06T03:00:40;99739.97;;;20.20;85.63
34674;BME280;20879;55.668;37.858;2022-07-06T03:03:10;99744.28;;;20.21;85.61
34674;BME280;20879;55.668;37.858;2022-07-06T03:05:39;99741.50;;;20.24;85.30
34674;BME280;20879;55.668;37.858;2022-07-06T03:08:08;99738.78;;;20.42;85.12
34674;BME280;20879;55.668;37.858;2022-07-06T03:10:37;99736.97;;;20.58;84.75
34674;BME280;20879;55.668;37.858;2022-07-06T03:13:09;99737.75;;;20.76;84.02
34674;BME280;20879;55.668;37.858;2022-07-06T03:15:38;99734.16;;;20.93;83.16
34674;BME280;20879;55.668;37.858;2022-07-06T03:18:08;99737.97;;;21.18;82.12
34674;BME280;20879;55.668;37.858;2022-07-06T03:20:38;99733.69;;;21.32;81.37
34674;BME280;20879;55.668;37.858;2022-07-06T03:23:10;99720.06;;;21.39;80.35
34674;BME280;20879;55.668;37.858;2022-07-06T03:25:40;99735.16;;;21.52;80.36
34674;BME280;20879;55.668;37.858;2022-07-06T03:28:12;99724.91;;;21.61;80.04
34674;BME280;20879;55.668;37.858;2022-07-06T03:30:42;99732.97;;;21.73;79.59
34674;BME280;20879;55.668;37.858;2022-07-06T03:33:11;99724.44;;;21.84;79.36
34674;BME280;20879;55.668;37.858;2022-07-06T03:35:41;99728.94;;;21.96;78.74
34674;BME280;20879;55.668;37.858;2022-07-06T03:38:11;99722.50;;;22.14;77.86
34674;BME280;20879;55.668;37.858;2022-07-06T03:40:42;99724.97;;;22.59;76.22
34674;BME280;20879;55.668;37.858;2022-07-06T03:43:14;99728.44;;;23.00;74.06
34674;BME280;20879;55.668;37.858;2022-07-06T03:45:44;99696.41;;;23.19;72.91
34674;BME280;20879;55.668;37.858;2022-07-06T03:48:15;99714.38;;;23.65;71.07
34674;BME280;20879;55.668;37.858;2022-07-06T03:50:45;99722.09;;;23.94;70.49
34674;BME280;20879;55.668;37.858;2022-07-06T03:53:14;99725.53;;;24.07;69.41
34674;BME280;20879;55.668;37.858;2022-07-06T03:55:46;99726.56;;;24.18;68.65
34674;BME280;20879;55.668;37.858;2022-07-06T03:58:39;99724.94;;;24.28;67.49
34674;BME280;20879;55.668;37.858;2022-07-06T04:01:08;99715.63;;;24.35;67.70
34674;BME280;20879;55.668;37.858;2022-07-06T04:03:38;99729.13;;;24.43;67.43
34674;BME280;20879;55.668;37.858;2022-07-06T04:06:09;99721.81;;;24.47;66.96
34674;BME280;20879;55.668;37.858;2022-07-06T04:08:38;99717.69;;;24.43;66.00
34674;BME280;20879;55.668;37.858;2022-07-06T04:11:07;99714.06;;;24.57;65.78
34674;BME280;20879;55.668;37.858;2022-07-06T04:13:39;99713.75;;;24.73;65.21
34674;BME280;20879;55.668;37.858;2022-07-06T04:16:08;99721.72;;;25.08;65.69
34674;BME280;20879;55.668;37.858;2022-07-06T04:18:38;99713.75;;;24.97;63.89
34674;BME280;20879;55.668;37.858;2022-07-06T04:21:07;99728.94;;;25.06;62.85
34674;BME280;20879;55.668;37.858;2022-07-06T04:23:37;99722.44;;;25.10;63.32
34674;BME280;20879;55.668;37.858;2022-07-06T04:26:09;99720.75;;;25.09;62.69
34674;BME280;20879;55.668;37.858;2022-07-06T04:28:40;99727.97;;;25.07;62.57
34674;BME280;20879;55.668;37.858;2022-07-06T04:31:10;99722.91;;;25.04;62.74
34674;BME280;20879;55.668;37.858;2022-07-06T04:33:45;99715.22;;;25.01;62.98
34674;BME280;20879;55.668;37.858;2022-07-06T04:36:14;99721.03;;;25.18;62.68
34674;BME280;20879;55.668;37.858;2022-07-06T04:38:45;99709.72;;;25.16;63.03
34674;BME280;20879;55.668;37.858;2022-07-06T04:41:16;99712.91;;;25.32;63.13
34674;BME280;20879;55.668;37.858;2022-07-06T04:43:47;99725.31;;;25.43;62.69
34674;BME280;20879;55.668;37.858;2022-07-06T04:46:17;99716.78;;;25.62;62.58
34674;BME280;20879;55.668;37.858;2022-07-06T04:48:50;99711.84;;;25.69;62.75
34674;BME280;20879;55.668;37.858;2022-07-06T04:51:25;99713.03;;;25.64;62.63
34674;BME280;20879;55.668;37.858;2022-07-06T04:53:55;99706.41;;;25.59;62.37
34674;BME280;20879;55.668;37.858;2022-07-06T04:56:24;99717.97;;;25.58;62.64
34674;BME280;20879;55.668;37.858;2022-07-06T04:58:58;99721.47;;;25.47;63.24
34674;BME280;20879;55.668;37.858;2022-07-06T05:01:28;99729.66;;;25.44;63.38
34674;BME280;20879;55.668;37.858;2022-07-06T05:03:57;99714.94;;;25.40;63.86
34674;BME280;20879;55.668;37.858;2022-07-06T05:06:26;99706.16;;;25.39;63.69
34674;BME280;20879;55.668;37.858;2022-07-06T05:08:55;99714.72;;;25.43;63.86
34674;BME280;20879;55.668;37.858;2022-07-06T05:11:26;99709.16;;;25.46;64.04
34674;BME280;20879;55.668;37.858;2022-07-06T05:13:58;99707.59;;;25.55;63.04
34674;BME280;20879;55.668;37.858;2022-07-06T05:16:28;99698.69;;;25.56;62.97
34674;BME280;20879;55.668;37.858;2022-07-06T05:18:58;99699.66;;;25.55;62.79
34674;BME280;20879;55.668;37.858;2022-07-06T05:21:28;99687.25;;;25.44;62.92
34674;BME280;20879;55.668;37.858;2022-07-06T05:23:58;99706.28;;;25.72;62.83
34674;BME280;20879;55.668;37.858;2022-07-06T05:26:27;99699.41;;;25.80;62.54
34674;BME280;20879;55.668;37.858;2022-07-06T05:28:58;99707.25;;;25.93;62.44
34674;BME280;20879;55.668;37.858;2022-07-06T05:31:29;99697.72;;;25.91;61.94
34674;BME280;20879;55.668;37.858;2022-07-06T05:33:59;99694.81;;;25.82;61.63
34674;BME280;20879;55.668;37.858;2022-07-06T05:36:28;99698.94;;;25.87;61.38
34674;BME280;20879;55.668;37.858;2022-07-06T05:38:58;99692.41;;;25.91;61.31
34674;BME280;20879;55.668;37.858;2022-07-06T05:41:29;99694.44;;;25.98;61.41
34674;BME280;20879;55.668;37.858;2022-07-06T05:44:02;99695.81;;;26.04;60.84
34674;BME280;20879;55.668;37.858;2022-07-06T05:46:32;99691.44;;;26.03;61.00
34674;BME280;20879;55.668;37.858;2022-07-06T05:49:01;99675.16;;;25.96;61.03
34674;BME280;20879;55.668;37.858;2022-07-06T05:51:44;99695.66;;;25.94;61.76
34674;BME280;20879;55.668;37.858;2022-07-06T05:54:14;99691.94;;;25.86;62.21
34674;BME280;20879;55.668;37.858;2022-07-06T05:56:43;99704.22;;;25.87;62.76
34674;BME280;20879;55.668;37.858;2022-07-06T05:59:15;99704.09;;;25.88;63.12
34674;BME280;20879;55.668;37.858;2022-07-06T06:01:45;99702.41;;;25.87;63.38
34674;BME280;20879;55.668;37.858;2022-07-06T06:04:19;99694.94;;;25.81;63.38
34674;BME280;20879;55.668;37.858;2022-07-06T06:06:48;99704.22;;;25.75;63.25
34674;BME280;20879;55.668;37.858;2022-07-06T06:09:17;99707.63;;;25.66;63.22
34674;BME280;20879;55.668;37.858;2022-07-06T06:11:46;99697.63;;;25.70;63.41
34674;BME280;20879;55.668;37.858;2022-07-06T06:14:19;99694.59;;;25.74;62.26
34674;BME280;20879;55.668;37.858;2022-07-06T06:16:48;99678.09;;;25.71;62.28
34674;BME280;20879;55.668;37.858;2022-07-06T06:19:18;99699.41;;;25.80;62.44
34674;BME280;20879;55.668;37.858;2022-07-06T06:21:47;99694.38;;;25.77;62.23
34674;BME280;20879;55.668;37.858;2022-07-06T06:24:18;99694.25;;;25.90;62.53
34674;BME280;20879;55.668;37.858;2022-07-06T06:26:47;99689.91;;;26.01;62.33
34674;BME280;20879;55.668;37.858;2022-07-06T06:29:18;99686.97;;;26.15;62.51
34674;BME280;20879;55.668;37.858;2022-07-06T06:31:47;99682.94;;;26.32;61.62
34674;BME280;20879;55.668;37.858;2022-07-06T06:34:17;99690.16;;;26.41;61.48
34674;BME280;20879;55.668;37.858;2022-07-06T06:36:47;99685.06;;;26.49;61.30
34674;BME280;20879;55.668;37.858;2022-07-06T06:39:17;99691.31;;;26.60;61.83
34674;BME280;20879;55.668;37.858;2022-07-06T06:41:47;99678.97;;;26.59;61.47
34674;BME280;20879;55.668;37.858;2022-07-06T06:44:18;99685.47;;;26.66;61.52
34674;BME280;20879;55.668;37.858;2022-07-06T06:46:50;99676.91;;;26.74;61.62
34674;BME280;20879;55.668;37.858;2022-07-06T06:49:19;99674.72;;;26.79;61.32
34674;BME280;20879;55.668;37.858;2022-07-06T06:51:48;99674.72;;;26.79;61.02
34674;BME280;20879;55.668;37.858;2022-07-06T06:54:38;99648.97;;;26.79;60.83
34674;BME280;20879;55.668;37.858;2022-07-06T06:57:07;99684.81;;;27.06;60.17
34674;BME280;20879;55.668;37.858;2022-07-06T06:59:38;99688.66;;;27.13;59.95
34674;BME280;20879;55.668;37.858;2022-07-06T07:02:08;99684.22;;;27.24;59.95
34674;BME280;20879;55.668;37.858;2022-07-06T07:04:37;99693.69;;;27.37;59.18
34674;BME280;20879;55.668;37.858;2022-07-06T07:07:06;99677.34;;;27.42;59.18
34674;BME280;20879;55.668;37.858;2022-07-06T07:09:35;99685.25;;;27.53;59.29
34674;BME280;20879;55.668;37.858;2022-07-06T07:12:08;99684.69;;;27.50;58.93
34674;BME280;20879;55.668;37.858;2022-07-06T07:14:41;99680.88;;;27.43;58.40
34674;BME280;20879;55.668;37.858;2022-07-06T07:17:11;99667.44;;;27.44;58.13
34674;BME280;20879;55.668;37.858;2022-07-06T07:19:41;99684.00;;;27.58;57.80
34674;BME280;20879;55.668;37.858;2022-07-06T07:22:11;99681.94;;;27.71;56.19
34674;BME280;20879;55.668;37.858;2022-07-06T07:24:41;99677.31;;;27.73;54.29
34674;BME280;20879;55.668;37.858;2022-07-06T07:27:10;99689.28;;;27.88;53.53
34674;BME280;20879;55.668;37.858;2022-07-06T07:29:41;99680.34;;;27.89;53.25
34674;BME280;20879;55.668;37.858;2022-07-06T07:32:10;99686.31;;;28.22;54.14
34674;BME280;20879;55.668;37.858;2022-07-06T07:34:39;99678.16;;;28.14;53.10
34674;BME280;20879;55.668;37.858;2022-07-06T07:37:09;99682.78;;;28.12;52.78
34674;BME280;20879;55.668;37.858;2022-07-06T07:39:40;99685.44;;;28.12;53.01
34674;BME280;20879;55.668;37.858;2022-07-06T07:42:09;99684.34;;;28.15;52.98
34674;BME280;20879;55.668;37.858;2022-07-06T07:44:46;99685.72;;;28.09;51.73
34674;BME280;20879;55.668;37.858;2022-07-06T07:47:15;99686.03;;;28.16;51.87
34674;BME280;20879;55.668;37.858;2022-07-06T07:49:45;99673.97;;;28.21;51.33
34674;BME280;20879;55.668;37.858;2022-07-06T07:52:14;99676.09;;;28.28;51.33
34674;BME280;20879;55.668;37.858;2022-07-06T07:54:44;99671.19;;;28.33;50.59
34674;BME280;20879;55.668;37.858;2022-07-06T07:57:24;99669.50;;;28.41;50.78
34674;BME280;20879;55.668;37.858;2022-07-06T07:59:55;99675.41;;;28.55;50.86
34674;BME280;20879;55.668;37.858;2022-07-06T08:02:24;99679.06;;;28.64;51.30
34674;BME280;20879;55.668;37.858;2022-07-06T08:04:53;99666.19;;;28.69;51.41
34674;BME280;20879;55.668;37.858;2022-07-06T08:07:23;99664.78;;;28.74;51.61
34674;BME280;20879;55.668;37.858;2022-07-06T08:09:52;99673.75;;;28.73;51.94
34674;BME280;20879;55.668;37.858;2022-07-06T08:12:21;99675.16;;;28.77;51.82
34674;BME280;20879;55.668;37.858;2022-07-06T08:14:50;99670.06;;;28.84;51.82
34674;BME280;20879;55.668;37.858;2022-07-06T08:17:21;99668.25;;;28.94;51.70
34674;BME280;20879;55.668;37.858;2022-07-06T08:19:50;99678.53;;;29.37;51.31
34674;BME280;20879;55.668;37.858;2022-07-06T08:22:19;99661.16;;;29.33;50.80
34674;BME280;20879;55.668;37.858;2022-07-06T08:24:48;99662.69;;;29.35;51.16
34674;BME280;20879;55.668;37.858;2022-07-06T08:27:18;99654.84;;;29.34;51.06
34674;BME280;20879;55.668;37.858;2022-07-06T08:29:47;99667.72;;;29.38;50.69
34674;BME280;20879;55.668;37.858;2022-07-06T08:32:17;99663.34;;;29.47;50.60
34674;BME280;20879;55.668;37.858;2022-07-06T08:35:10;99665.41;;;29.53;50.08
34674;BME280;20879;55.668;37.858;2022-07-06T08:37:40;99661.41;;;29.49;49.34
34674;BME280;20879;55.668;37.858;2022-07-06T08:40:10;99649.41;;;29.53;49.18
34674;BME280;20879;55.668;37.858;2022-07-06T08:42:39;99656.00;;;29.59;49.28
34674;BME280;20879;55.668;37.858;2022-07-06T08:45:09;99635.94;;;29.55;49.66
34674;BME280;20879;55.668;37.858;2022-07-06T08:47:39;99651.00;;;29.74;49.08
34674;BME280;20879;55.668;37.858;2022-07-06T08:50:12;99640.88;;;29.87;49.67
34674;BME280;20879;55.668;37.858;2022-07-06T08:52:43;99645.53;;;30.03;48.96
34674;BME280;20879;55.668;37.858;2022-07-06T08:55:12;99641.59;;;30.25;48.49
34674;BME280;20879;55.668;37.858;2022-07-06T08:57:44;99638.47;;;30.48;48.01
34674;BME280;20879;55.668;37.858;2022-07-06T09:00:15;99642.88;;;30.57;47.55
34674;BME280;20879;55.668;37.858;2022-07-06T09:02:44;99634.34;;;30.36;47.22
34674;BME280;20879;55.668;37.858;2022-07-06T09:05:17;99635.25;;;30.62;46.75
34674;BME280;20879;55.668;37.858;2022-07-06T09:07:49;99640.91;;;30.59;46.29
34674;BME280;20879;55.668;37.858;2022-07-06T09:10:27;99644.38;;;30.78;46.42
34674;BME280;20879;55.668;37.858;2022-07-06T09:13:02;99639.97;;;30.68;46.38
34674;BME280;20879;55.668;37.858;2022-07-06T09:15:32;99639.28;;;30.66;46.19
34674;BME280;20879;55.668;37.858;2022-07-06T09:18:02;99632.53;;;30.80;46.28
34674;BME280;20879;55.668;37.858;2022-07-06T09:20:34;99628.00;;;30.99;45.65
34674;BME280;20879;55.668;37.858;2022-07-06T09:23:05;99636.47;;;30.94;44.26
34674;BME280;20879;55.668;37.858;2022-07-06T09:25:42;99647.25;;;31.02;44.04
34674;BME280;20879;55.668;37.858;2022-07-06T09:28:16;99636.19;;;31.24;43.51
34674;BME280;20879;55.668;37.858;2022-07-06T09:30:45;99638.97;;;31.14;44.05
34674;BME280;20879;55.668;37.858;2022-07-06T09:33:17;99612.44;;;30.94;43.84
34674;BME280;20879;55.668;37.858;2022-07-06T09:35:48;99630.09;;;30.87;44.41
34674;BME280;20879;55.668;37.858;2022-07-06T09:38:26;99630.84;;;30.53;43.79
34674;BME280;20879;55.668;37.858;2022-07-06T09:40:56;99634.09;;;30.29;44.98
34674;BME280;20879;55.668;37.858;2022-07-06T09:43:25;99626.56;;;30.42;44.57
34674;BME280;20879;55.668;37.858;2022-07-06T09:45:56;99625.81;;;30.50;44.64
34674;BME280;20879;55.668;37.858;2022-07-06T09:48:27;99605.59;;;30.47;44.79
34674;BME280;20879;55.668;37.858;2022-07-06T09:51:01;99623.47;;;30.73;44.03
34674;BME280;20879;55.668;37.858;2022-07-06T09:53:35;99622.91;;;30.88;43.92
34674;BME280;20879;55.668;37.858;2022-07-06T09:56:05;99620.84;;;30.81;43.90
34674;BME280;20879;55.668;37.858;2022-07-06T09:58:38;99621.66;;;30.74;43.59
34674;BME280;20879;55.668;37.858;2022-07-06T10:01:28;99618.22;;;30.63;44.38
34674;BME280;20879;55.668;37.858;2022-07-06T10:03:58;99617.00;;;30.58;44.77
34674;BME280;20879;55.668;37.858;2022-07-06T10:06:29;99617.50;;;30.53;44.75
34674;BME280;20879;55.668;37.858;2022-07-06T10:08:59;99610.81;;;30.57;44.19
34674;BME280;20879;55.668;37.858;2022-07-06T10:11:30;99600.63;;;30.79;44.03
34674;BME280;20879;55.668;37.858;2022-07-06T10:14:01;99604.91;;;31.24;43.45
34674;BME280;20879;55.668;37.858;2022-07-06T10:16:33;99600.88;;;31.54;43.24
34674;BME280;20879;55.668;37.858;2022-07-06T10:19:06;99594.06;;;31.68;41.78
34674;BME280;20879;55.668;37.858;2022-07-06T10:21:39;99584.09;;;31.87;41.09
34674;BME280;20879;55.668;37.858;2022-07-06T10:24:10;99586.44;;;32.06;40.79
34674;BME280;20879;55.668;37.858;2022-07-06T10:26:40;99578.66;;;32.21;41.14
34674;BME280;20879;55.668;37.858;2022-07-06T10:29:09;99584.78;;;32.05;41.54
34674;BME280;20879;55.668;37.858;2022-07-06T10:31:44;99583.94;;;32.05;41.91
34674;BME280;20879;55.668;37.858;2022-07-06T10:34:16;99587.75;;;31.86;42.23
34674;BME280;20879;55.668;37.858;2022-07-06T10:36:51;99586.78;;;32.03;42.09
34674;BME280;20879;55.668;37.858;2022-07-06T10:39:35;99581.97;;;32.23;41.93
34674;BME280;20879;55.668;37.858;2022-07-06T10:42:42;99583.16;;;32.46;41.71
34674;BME280;20879;55.668;37.858;2022-07-06T10:45:13;99577.44;;;32.73;40.78
34674;BME280;20879;55.668;37.858;2022-07-06T10:47:44;99583.81;;;32.56;40.86
34674;BME280;20879;55.668;37.858;2022-07-06T10:50:14;99559.72;;;32.48;40.54
34674;BME280;20879;55.668;37.858;2022-07-06T10:52:58;99577.31;;;32.67;40.76
34674;BME280;20879;55.668;37.858;2022-07-06T10:55:29;99582.13;;;32.38;40.87
34674;BME280;20879;55.668;37.858;2022-07-06T10:58:01;99566.38;;;32.02;41.17
34674;BME280;20879;55.668;37.858;2022-07-06T11:00:48;99566.00;;;31.89;41.58
34674;BME280;20879;55.668;37.858;2022-07-06T11:03:40;99566.84;;;31.81;41.92
34674;BME280;20879;55.668;37.858;2022-07-06T11:06:13;99575.53;;;31.32;41.42
34674;BME280;20879;55.668;37.858;2022-07-06T11:08:53;99576.97;;;30.92;40.45
34674;BME280;20879;55.668;37.858;2022-07-06T11:11:25;99584.97;;;30.84;39.09
34674;BME280;20879;55.668;37.858;2022-07-06T11:13:58;99579.56;;;31.02;38.20
34674;BME280;20879;55.668;37.858;2022-07-06T11:16:29;99563.59;;;31.10;37.69
34674;BME280;20879;55.668;37.858;2022-07-06T11:19:06;99586.19;;;31.24;37.80
34674;BME280;20879;55.668;37.858;2022-07-06T11:21:47;99577.34;;;31.24;38.60
34674;BME280;20879;55.668;37.858;2022-07-06T11:24:20;99583.50;;;31.16;39.07
34674;BME280;20879;55.668;37.858;2022-07-06T11:26:51;99565.97;;;30.95;39.29
34674;BME280;20879;55.668;37.858;2022-07-06T11:29:22;99568.78;;;30.85;40.08
34674;BME280;20879;55.668;37.858;2022-07-06T11:31:52;99561.16;;;30.99;40.13
34674;BME280;20879;55.668;37.858;2022-07-06T11:34:23;99543.75;;;30.60;39.95
34674;BME280;20879;55.668;37.858;2022-07-06T11:36:55;99542.72;;;30.17;41.94
34674;BME280;20879;55.668;37.858;2022-07-06T11:39:30;99550.41;;;30.20;41.97
34674;BME280;20879;55.668;37.858;2022-07-06T11:42:01;99557.13;;;30.24;42.32
34674;BME280;20879;55.668;37.858;2022-07-06T11:44:30;99551.63;;;30.44;42.28
34674;BME280;20879;55.668;37.858;2022-07-06T11:47:00;99548.19;;;30.52;41.97
34674;BME280;20879;55.668;37.858;2022-07-06T11:49:31;99560.75;;;30.59;41.39
34674;BME280;20879;55.668;37.858;2022-07-06T11:52:06;99567.16;;;30.66;41.17
34674;BME280;20879;55.668;37.858;2022-07-06T11:54:37;99547.34;;;30.77;41.04
34674;BME280;20879;55.668;37.858;2022-07-06T11:57:09;99561.69;;;31.02;40.77
34674;BME280;20879;55.668;37.858;2022-07-06T11:59:40;99559.03;;;31.02;40.87
34674;BME280;20879;55.668;37.858;2022-07-06T12:02:15;99546.38;;;31.13;41.06
34674;BME280;20879;55.668;37.858;2022-07-06T12:04:45;99541.78;;;30.97;41.10
34674;BME280;20879;55.668;37.858;2022-07-06T12:07:17;99518.25;;;31.00;41.56
34674;BME280;20879;55.668;37.858;2022-07-06T12:09:49;99538.06;;;31.16;40.72
34674;BME280;20879;55.668;37.858;2022-07-06T12:15:12;99537.13;;;31.42;39.61
34674;BME280;20879;55.668;37.858;2022-07-06T12:17:46;99520.25;;;31.49;38.89
34674;BME280;20879;55.668;37.858;2022-07-06T12:20:16;99531.28;;;31.38;38.67
34674;BME280;20879;55.668;37.858;2022-07-06T12:22:46;99513.44;;;31.12;38.67
34674;BME280;20879;55.668;37.858;2022-07-06T12:25:33;99529.63;;;31.45;39.01
34674;BME280;20879;55.668;37.858;2022-07-06T12:28:04;99533.78;;;31.48;38.77
34674;BME280;20879;55.668;37.858;2022-07-06T12:30:34;99531.88;;;31.66;39.03
34674;BME280;20879;55.668;37.858;2022-07-06T12:33:15;99527.91;;;31.28;41.59
34674;BME280;20879;55.668;37.858;2022-07-06T12:35:45;99525.19;;;30.93;42.48
34674;BME280;20879;55.668;37.858;2022-07-06T12:38:21;99525.53;;;30.64;43.02
34674;BME280;20879;55.668;37.858;2022-07-06T12:40:53;99531.09;;;30.44;43.76
34674;BME280;20879;55.668;37.858;2022-07-06T12:43:37;99530.69;;;30.39;42.40
34674;BME280;20879;55.668;37.858;2022-07-06T12:46:28;99529.38;;;30.61;42.34
34674;BME280;20879;55.668;37.858;2022-07-06T12:48:59;99538.84;;;30.56;42.33
34674;BME280;20879;55.668;37.858;2022-07-06T12:58:01;99554.56;;;30.41;43.05
34674;BME280;20879;55.668;37.858;2022-07-06T13:00:43;99562.47;;;30.24;43.26
34674;BME280;20879;55.668;37.858;2022-07-06T13:03:13;99558.56;;;30.19;43.77
34674;BME280;20879;55.668;37.858;2022-07-06T13:05:49;99552.75;;;30.23;43.65
34674;BME280;20879;55.668;37.858;2022-07-06T13:08:18;99545.31;;;30.09;43.52
34674;BME280;20879;55.668;37.858;2022-07-06T13:10:48;99544.75;;;30.23;43.69
34674;BME280;20879;55.668;37.858;2022-07-06T13:13:19;99536.22;;;30.20;42.71
34674;BME280;20879;55.668;37.858;2022-07-06T13:15:49;99534.94;;;30.06;43.01
34674;BME280;20879;55.668;37.858;2022-07-06T13:18:19;99526.47;;;29.92;43.34
34674;BME280;20879;55.668;37.858;2022-07-06T13:20:48;99522.34;;;29.80;43.02